createdAt,value
2023-04-11T00:00:04.853Z,96292.91
2023-04-11T00:03:01.273Z,96294.78
2023-04-11T00:05:51.372Z,96273.75
2023-04-11T00:08:40.572Z,96256.97
2023-04-11T00:11:29.580Z,96255.22
2023-04-11T00:14:19.194Z,96245.91
2023-04-11T00:17:09.542Z,96238.63
2023-04-11T00:20:03.193Z,96239.69
2023-04-11T00:22:54.495Z,96251.81
2023-04-11T00:25:44.372Z,96242.38
2023-04-11T00:28:33.033Z,96225.84
2023-04-11T00:31:22.541Z,96216.91
2023-04-11T00:34:12.502Z,96228.63
2023-04-11T00:37:02.646Z,96219.00
2023-04-11T00:39:54.135Z,96194.09
2023-04-11T00:42:43.688Z,96194.22
2023-04-11T00:45:33.490Z,96182.97
2023-04-11T00:48:22.389Z,96181.09
2023-04-11T00:51:11.907Z,96177.78
2023-04-11T00:54:01.935Z,96180.84
2023-04-11T00:56:52.750Z,96172.84
2023-04-11T00:59:42.616Z,96156.69
2023-04-11T01:02:32.624Z,96179.78
2023-04-11T01:05:21.884Z,96169.78
2023-04-11T01:08:12.161Z,96184.56
2023-04-11T01:11:01.883Z,96192.22
2023-04-11T01:13:53.437Z,96189.69
2023-04-11T01:16:44.186Z,96195.09
2023-04-11T01:19:33.327Z,96212.72
2023-04-11T01:22:24.635Z,96205.47
2023-04-11T01:25:16.700Z,96206.66
2023-04-11T01:28:09.207Z,96201.09
2023-04-11T01:30:59.402Z,96194.41
2023-04-11T01:33:48.571Z,96179.47
2023-04-11T01:36:38.766Z,96180.78
2023-04-11T01:39:27.766Z,96179.47
2023-04-11T01:42:18.792Z,96167.59
2023-04-11T01:45:09.244Z,96166.41
2023-04-11T01:47:58.492Z,96158.91
2023-04-11T01:50:48.465Z,96157.75
2023-04-11T01:53:37.107Z,96167.75
2023-04-11T01:56:26.751Z,96149.97
2023-04-11T01:59:16.943Z,96146.13
2023-04-11T02:02:07.274Z,96137.69
2023-04-11T02:04:56.011Z,96138.81
2023-04-11T02:07:45.893Z,96108.59
2023-04-11T02:10:39.555Z,96079.69
2023-04-11T02:13:28.617Z,96094.41
2023-04-11T02:16:20.097Z,96100.63
2023-04-11T02:19:10.001Z,96105.47
2023-04-11T02:21:59.061Z,96106.72
2023-04-11T02:24:48.921Z,96100.72
2023-04-11T02:27:37.699Z,96090.84
2023-04-11T02:30:26.887Z,96100.34
2023-04-11T02:33:16.966Z,96102.22
2023-04-11T02:36:07.762Z,96081.75
2023-04-11T02:38:56.718Z,96088.34
2023-04-11T02:41:49.662Z,96089.78
2023-04-11T02:44:38.294Z,96085.97
2023-04-11T02:47:29.259Z,96086.84
2023-04-11T02:50:26.049Z,96101.38
2023-04-11T02:53:16.804Z,96114.16
2023-04-11T02:56:11.994Z,96110.41
2023-04-11T02:59:01.135Z,96107.50
2023-04-11T03:01:51.495Z,96102.75
2023-04-11T03:04:41.134Z,96091.16
2023-04-11T03:07:40.606Z,96082.16
2023-04-11T03:10:31.691Z,96083.91
2023-04-11T03:13:22.789Z,96086.09
2023-04-11T03:16:14.141Z,96092.91
2023-04-11T03:19:03.071Z,96076.75
2023-04-11T03:21:52.434Z,96085.09
2023-04-11T03:24:42.967Z,96065.84
2023-04-11T03:27:32.503Z,96072.81
2023-04-11T03:30:24.987Z,96060.84
2023-04-11T03:33:14.374Z,96042.41
2023-04-11T03:36:03.526Z,96059.09
2023-04-11T03:38:52.646Z,96049.59
2023-04-11T03:41:43.110Z,96029.06
2023-04-11T03:44:32.715Z,96012.03
2023-04-11T03:47:22.606Z,96005.88
2023-04-11T03:50:11.790Z,96030.81
2023-04-11T03:53:07.620Z,96051.78
2023-04-11T03:55:56.590Z,96048.91
2023-04-11T03:58:56.024Z,96071.06
2023-04-11T04:01:49.254Z,96063.66
2023-04-11T04:04:38.962Z,96048.75
2023-04-11T04:07:40.785Z,96050.06
2023-04-11T04:10:37.564Z,96042.69
2023-04-11T04:13:26.229Z,96036.53
2023-04-11T04:16:26.936Z,96024.31
2023-04-11T04:19:20.439Z,96020.72
2023-04-11T04:22:11.929Z,96012.50
2023-04-11T04:25:05.264Z,96005.53
2023-04-11T04:27:58.125Z,96006.50
2023-04-11T04:30:54.637Z,95992.84
2023-04-11T04:33:49.472Z,96001.22
2023-04-11T04:36:48.036Z,95998.25
2023-04-11T04:39:42.353Z,95994.72
2023-04-11T04:42:36.383Z,95991.88
2023-04-11T04:45:28.423Z,95977.84
2023-04-11T04:48:18.721Z,95981.69
2023-04-11T04:51:09.277Z,95991.22
2023-04-11T04:53:59.948Z,95981.13
2023-04-11T04:56:50.976Z,95978.16
2023-04-11T04:59:39.806Z,95984.47
2023-04-11T05:02:33.062Z,95978.09
2023-04-11T05:05:22.597Z,95987.19
2023-04-11T05:08:12.668Z,95980.66
2023-04-11T05:11:02.600Z,95983.19
2023-04-11T05:13:51.434Z,95984.66
2023-04-11T05:16:43.102Z,95958.19
2023-04-11T05:19:32.352Z,95993.66
2023-04-11T05:22:23.453Z,95999.72
2023-04-11T05:25:17.972Z,95984.13
2023-04-11T05:28:07.441Z,95989.09
2023-04-11T05:30:56.343Z,95999.16
2023-04-11T05:33:46.511Z,95995.97
2023-04-11T05:36:35.365Z,95993.38
2023-04-11T05:39:24.018Z,95998.00
2023-04-11T05:42:14.259Z,96003.50
2023-04-11T05:45:03.465Z,96001.94
2023-04-11T05:47:52.590Z,96000.38
2023-04-11T05:50:41.653Z,96004.22
2023-04-11T05:53:30.462Z,96006.75
2023-04-11T05:56:19.773Z,96010.84
2023-04-11T05:59:09.760Z,96010.34
2023-04-11T06:01:58.717Z,96015.84
2023-04-11T06:04:48.137Z,96009.59
2023-04-11T06:07:37.234Z,96022.16
2023-04-11T06:10:26.364Z,96025.41
2023-04-11T06:13:15.135Z,96023.25
2023-04-11T06:16:06.894Z,96022.78
2023-04-11T06:18:57.172Z,96035.00
2023-04-11T06:21:45.838Z,96033.63
2023-04-11T06:24:39.116Z,96036.00
2023-04-11T06:27:27.992Z,96037.56
2023-04-11T06:30:17.465Z,96047.91
2023-04-11T06:33:07.645Z,96050.78
2023-04-11T06:35:58.014Z,96059.28
2023-04-11T06:38:46.657Z,96062.25
2023-04-11T06:41:36.270Z,96066.13
2023-04-11T06:44:25.144Z,96064.78
2023-04-11T06:47:14.049Z,96060.75
2023-04-11T06:50:04.104Z,96057.03
2023-04-11T06:52:53.123Z,96052.50
2023-04-11T06:55:41.941Z,96055.03
2023-04-11T06:58:31.215Z,96041.56
2023-04-11T07:01:20.578Z,96040.88
2023-04-11T07:04:10.906Z,96039.41
2023-04-11T07:07:00.978Z,96034.03
2023-04-11T07:09:50.069Z,96034.88
2023-04-11T07:12:38.708Z,96042.75
2023-04-11T07:15:28.447Z,96044.69
2023-04-11T07:18:17.083Z,96044.72
2023-04-11T07:21:06.385Z,96023.44
2023-04-11T07:23:56.780Z,96057.22
2023-04-11T07:26:46.987Z,96057.00
2023-04-11T07:29:35.687Z,96051.91
2023-04-11T07:32:24.500Z,96063.66
2023-04-11T07:35:13.660Z,96071.38
2023-04-11T07:38:02.797Z,96078.91
2023-04-11T07:40:53.233Z,96078.34
2023-04-11T07:43:42.316Z,96076.91
2023-04-11T07:46:30.988Z,96090.72
2023-04-11T07:49:19.705Z,96093.34
2023-04-11T07:52:08.544Z,96102.31
2023-04-11T07:54:58.080Z,96078.06
2023-04-11T07:57:48.669Z,96089.31
2023-04-11T08:00:37.353Z,96094.31
2023-04-11T08:03:27.060Z,96091.63
2023-04-11T08:06:16.608Z,96090.97
2023-04-11T08:09:05.572Z,96090.81
2023-04-11T08:11:54.874Z,96090.78
2023-04-11T08:14:44.933Z,96109.69
2023-04-11T08:17:37.828Z,96098.34
2023-04-11T08:20:27.103Z,96103.94
2023-04-11T08:26:05.145Z,96128.09
2023-04-11T08:28:54.665Z,96155.53
2023-04-11T08:31:45.093Z,96163.13
2023-04-11T08:34:33.977Z,96182.38
2023-04-11T08:37:22.988Z,96186.09
2023-04-11T08:40:12.028Z,96185.34
2023-04-11T08:43:02.284Z,96194.84
2023-04-11T08:45:51.146Z,96187.88
2023-04-11T08:48:41.619Z,96183.41
2023-04-11T08:51:31.619Z,96194.09
2023-04-11T08:54:20.938Z,96198.69
2023-04-11T08:57:09.562Z,96186.22
2023-04-11T09:00:03.038Z,96228.09
2023-04-11T09:02:59.076Z,96224.66
2023-04-11T09:05:50.398Z,96240.69
2023-04-11T09:08:40.464Z,96227.13
2023-04-11T09:11:29.436Z,96240.44
2023-04-11T09:14:18.349Z,96225.91
2023-04-11T09:17:13.804Z,96216.28
2023-04-11T09:20:17.841Z,96223.19
2023-04-11T09:23:08.260Z,96196.34
2023-04-11T09:25:57.018Z,96190.69
2023-04-11T09:28:52.678Z,96200.63
2023-04-11T09:31:43.538Z,96204.72
2023-04-11T09:34:32.745Z,96217.91
2023-04-11T09:37:22.286Z,96222.47
2023-04-11T09:40:12.928Z,96208.59
2023-04-11T09:43:05.124Z,96226.19
2023-04-11T09:46:10.677Z,96216.56
2023-04-11T09:49:01.672Z,96202.06
2023-04-11T09:51:52.184Z,96206.59
2023-04-11T09:54:41.430Z,96187.19
2023-04-11T09:57:35.087Z,96210.41
2023-04-11T10:00:29.685Z,96215.81
2023-04-11T10:03:20.284Z,96219.81
2023-04-11T10:06:14.794Z,96221.44
2023-04-11T10:09:08.662Z,96221.88
2023-04-11T10:11:57.388Z,96217.56
2023-04-11T10:14:48.251Z,96230.84
2023-04-11T10:17:37.779Z,96222.09
2023-04-11T10:20:44.073Z,96213.75
2023-04-11T10:24:08.770Z,96229.22
2023-04-11T10:26:58.993Z,96231.63
2023-04-11T10:29:52.011Z,96239.47
2023-04-11T10:32:42.094Z,96234.34
2023-04-11T10:35:30.900Z,96243.91
2023-04-11T10:38:47.139Z,96245.19
2023-04-11T10:41:36.043Z,96256.47
2023-04-11T10:44:24.991Z,96261.25
2023-04-11T10:47:19.284Z,96235.00
2023-04-11T10:50:34.650Z,96226.72
2023-04-11T10:53:40.903Z,96210.38
2023-04-11T10:56:56.672Z,96219.78
2023-04-11T10:59:59.061Z,96234.34
2023-04-11T11:02:50.420Z,96220.19
2023-04-11T11:05:40.596Z,96243.56
2023-04-11T11:08:31.312Z,96263.84
2023-04-11T11:11:20.680Z,96252.78
2023-04-11T11:14:10.046Z,96252.00
2023-04-11T11:16:59.139Z,96251.13
2023-04-11T11:19:50.156Z,96251.88
2023-04-11T11:22:38.786Z,96267.44
2023-04-11T11:25:28.565Z,96265.09
2023-04-11T11:28:17.200Z,96267.63
2023-04-11T11:31:06.195Z,96268.66
2023-04-11T11:33:58.292Z,96257.72
2023-04-11T11:36:57.704Z,96278.84
2023-04-11T11:39:46.582Z,96280.09
2023-04-11T11:42:37.208Z,96245.78
2023-04-11T11:48:21.868Z,96256.75
2023-04-11T11:51:10.795Z,96266.44
2023-04-11T11:54:06.130Z,96263.19
2023-04-11T11:56:55.094Z,96258.16
2023-04-11T11:59:44.162Z,96263.13
2023-04-11T12:02:36.160Z,96252.25
2023-04-11T12:05:30.063Z,96269.84
2023-04-11T12:08:21.148Z,96264.94
2023-04-11T12:11:15.288Z,96249.16
2023-04-11T12:14:04.485Z,96269.38
2023-04-11T12:16:54.765Z,96273.53
2023-04-11T12:19:43.903Z,96255.91
2023-04-11T12:22:32.989Z,96253.22
2023-04-11T12:25:21.693Z,96252.75
2023-04-11T12:28:12.460Z,96170.38
2023-04-11T12:31:01.117Z,96267.47
2023-04-11T12:33:49.762Z,96258.63
2023-04-11T12:36:38.440Z,96264.66
2023-04-11T12:39:27.736Z,96266.44
2023-04-11T12:42:18.679Z,96279.28
2023-04-11T12:45:13.766Z,96269.56
2023-04-11T12:48:02.489Z,96263.94
2023-04-11T12:50:51.507Z,96257.28
2023-04-11T12:53:40.254Z,96275.03
2023-04-11T12:56:29.554Z,96269.75
2023-04-11T12:59:18.997Z,96264.25
2023-04-11T13:02:09.656Z,96283.22
2023-04-11T13:05:00.043Z,96285.13
2023-04-11T13:07:48.800Z,96273.75
2023-04-11T13:10:39.810Z,96279.22
2023-04-11T13:13:28.994Z,96259.16
2023-04-11T13:16:17.727Z,96279.28
2023-04-11T13:19:08.086Z,96283.69
2023-04-11T13:21:57.254Z,96264.06
2023-04-11T13:24:45.972Z,96256.88
2023-04-11T13:27:37.799Z,96258.94
2023-04-11T13:30:26.481Z,96268.44
2023-04-11T13:33:15.624Z,96233.66
2023-04-11T13:36:06.222Z,96231.03
2023-04-11T13:38:55.989Z,96240.88
2023-04-11T13:41:45.880Z,96233.28
2023-04-11T13:44:34.922Z,96251.00
2023-04-11T13:47:23.647Z,96245.13
2023-04-11T13:50:12.394Z,96249.78
2023-04-11T13:53:02.419Z,96248.97
2023-04-11T13:55:51.757Z,96237.03
2023-04-11T13:58:40.476Z,96243.69
2023-04-11T14:01:29.574Z,96239.13
2023-04-11T14:04:18.422Z,96243.53
2023-04-11T14:07:07.870Z,96244.06
2023-04-11T14:09:58.207Z,96242.50
2023-04-11T14:12:47.255Z,96245.97
2023-04-11T14:15:36.127Z,96230.66
2023-04-11T14:18:25.570Z,96231.81
2023-04-11T14:21:14.331Z,96230.97
2023-04-11T14:24:03.289Z,96198.38
2023-04-11T14:26:53.285Z,96229.59
2023-04-11T14:29:42.298Z,96225.16
2023-04-11T14:32:31.064Z,96224.53
2023-04-11T14:35:20.201Z,96222.47
2023-04-11T14:38:08.975Z,96229.81
2023-04-11T14:40:58.925Z,96221.09
2023-04-11T14:43:49.682Z,96228.44
2023-04-11T14:46:38.896Z,96233.59
2023-04-11T14:49:28.057Z,96221.94
2023-04-11T14:52:16.694Z,96222.97
2023-04-11T14:55:06.177Z,96216.88
2023-04-11T14:57:56.518Z,96219.34
2023-04-11T15:00:46.825Z,96227.00
2023-04-11T15:03:36.358Z,96221.53
2023-04-11T15:06:25.161Z,96228.13
2023-04-11T15:09:16.817Z,96222.03
2023-04-11T15:12:06.946Z,96217.19
2023-04-11T15:14:55.574Z,96224.94
2023-04-11T15:17:47.696Z,96223.38
2023-04-11T15:20:37.114Z,96216.34
2023-04-11T15:23:26.103Z,96214.44
2023-04-11T15:26:14.785Z,96212.84
2023-04-11T15:29:03.836Z,96210.38
2023-04-11T15:31:52.558Z,96201.09
2023-04-11T15:34:42.757Z,96208.16
2023-04-11T15:37:32.693Z,96207.53
2023-04-11T15:40:21.352Z,96221.47
2023-04-11T15:43:10.354Z,96216.34
2023-04-11T15:45:58.968Z,96216.09
2023-04-11T15:48:48.687Z,96212.56
2023-04-11T15:51:39.107Z,96221.84
2023-04-11T15:54:27.839Z,96213.94
2023-04-11T15:57:18.704Z,96223.19
2023-04-11T16:00:10.384Z,96212.56
2023-04-11T16:03:02.870Z,96222.91
2023-04-11T16:05:53.493Z,96255.28
2023-04-11T16:08:44.485Z,96252.16
2023-04-11T16:11:33.428Z,96247.78
2023-04-11T16:14:22.026Z,96238.44
2023-04-11T16:17:11.009Z,96249.31
2023-04-11T16:19:59.870Z,96247.56
2023-04-11T16:22:48.735Z,96256.66
2023-04-11T16:25:39.181Z,96265.72
2023-04-11T16:28:27.944Z,96266.81
2023-04-11T16:31:21.962Z,96255.91
2023-04-11T16:34:10.748Z,96260.28
2023-04-11T16:36:59.933Z,96255.09
2023-04-11T16:39:48.852Z,96265.22
2023-04-11T16:42:39.976Z,96258.38
2023-04-11T16:45:29.346Z,96268.47
2023-04-11T16:48:17.977Z,96268.47
2023-04-11T16:51:07.360Z,96270.94
2023-04-11T16:53:56.287Z,96257.84
2023-04-11T16:56:47.022Z,96259.47
2023-04-11T16:59:38.276Z,96269.56
2023-04-11T17:02:27.164Z,96268.16
2023-04-11T17:05:18.966Z,96267.56
2023-04-11T17:08:08.152Z,96236.41
2023-04-11T17:11:06.577Z,96251.63
2023-04-11T17:13:56.130Z,96252.09
2023-04-11T17:16:46.572Z,96267.06
2023-04-11T17:19:35.250Z,96261.28
2023-04-11T17:22:23.858Z,96255.03
2023-04-11T17:25:12.525Z,96252.50
2023-04-11T17:28:01.473Z,96246.75
2023-04-11T17:30:50.359Z,96251.59
2023-04-11T17:33:40.895Z,96256.16
2023-04-11T17:36:30.701Z,96255.31
2023-04-11T17:39:19.506Z,96256.84
2023-04-11T17:42:08.455Z,96258.16
2023-04-11T17:45:03.705Z,96273.94
2023-04-11T17:47:59.365Z,96265.13
2023-04-11T17:50:50.160Z,96270.44
2023-04-11T17:53:38.784Z,96271.75
2023-04-11T17:56:27.620Z,96272.50
2023-04-11T17:59:17.536Z,96276.84
2023-04-11T18:02:07.162Z,96269.97
2023-04-11T18:04:56.112Z,96276.50
2023-04-11T18:07:47.421Z,96279.69
2023-04-11T18:10:36.060Z,96269.84
2023-04-11T18:13:24.705Z,96281.25
2023-04-11T18:16:13.367Z,96276.28
2023-04-11T18:19:03.178Z,96285.19
2023-04-11T18:21:53.466Z,96268.91
2023-04-11T18:24:43.421Z,96294.84
2023-04-11T18:27:33.327Z,96296.94
2023-04-11T18:30:21.920Z,96293.97
2023-04-11T18:33:11.364Z,96310.97
2023-04-11T18:36:00.051Z,96314.31
2023-04-11T18:38:49.388Z,96314.47
2023-04-11T18:41:40.126Z,96326.81
2023-04-11T18:44:30.523Z,96324.09
2023-04-11T18:47:19.662Z,96318.00
2023-04-11T18:50:09.871Z,96314.94
2023-04-11T18:53:04.861Z,96320.34
2023-04-11T18:55:55.151Z,96333.91
2023-04-11T18:58:46.623Z,96324.56
2023-04-11T19:01:36.402Z,96330.88
2023-04-11T19:04:25.778Z,96340.19
2023-04-11T19:07:15.045Z,96337.63
2023-04-11T19:10:03.682Z,96335.31
2023-04-11T19:12:52.299Z,96331.19
2023-04-11T19:15:42.880Z,96331.78
2023-04-11T19:18:33.072Z,96327.91
2023-04-11T19:21:22.574Z,96331.34
2023-04-11T19:24:11.712Z,96327.38
2023-04-11T19:27:01.757Z,96325.47
2023-04-11T19:29:50.878Z,96324.19
2023-04-11T19:32:43.613Z,96316.59
2023-04-11T19:35:33.125Z,96314.50
2023-04-11T19:38:22.338Z,96310.75
2023-04-11T19:41:12.444Z,96318.25
2023-04-11T19:44:01.644Z,96319.44
2023-04-11T19:46:50.670Z,96314.59
2023-04-11T19:49:40.686Z,96308.13
2023-04-11T19:52:30.123Z,96303.69
2023-04-11T19:55:19.006Z,96302.25
2023-04-11T19:58:07.978Z,96297.91
2023-04-11T20:00:58.280Z,96292.88
2023-04-11T20:03:47.472Z,96290.31
2023-04-11T20:06:37.603Z,96293.03
2023-04-11T20:09:27.673Z,96293.38
2023-04-11T20:12:16.272Z,96287.75
2023-04-11T20:15:05.948Z,96291.88
2023-04-11T20:17:54.731Z,96287.88
2023-04-11T20:20:45.537Z,96288.34
2023-04-11T20:23:37.060Z,96279.53
2023-04-11T20:26:27.138Z,96275.78
2023-04-11T20:29:18.019Z,96278.03
2023-04-11T20:32:07.278Z,96276.97
2023-04-11T20:34:56.408Z,96289.41
2023-04-11T20:37:46.002Z,96282.91
2023-04-11T20:40:37.030Z,96275.19
2023-04-11T20:43:26.746Z,96276.13
2023-04-11T20:46:17.834Z,96280.00
2023-04-11T20:49:08.236Z,96272.72
2023-04-11T20:51:57.416Z,96285.88
2023-04-11T20:54:46.114Z,96267.81
2023-04-11T20:57:36.177Z,96277.97
2023-04-11T21:00:26.369Z,96270.78
2023-04-11T21:03:15.173Z,96272.16
2023-04-11T21:06:07.439Z,96268.63
2023-04-11T21:08:57.519Z,96253.88
2023-04-11T21:11:46.656Z,96265.28
2023-04-11T21:14:36.668Z,96265.50
2023-04-11T21:17:25.421Z,96261.19
2023-04-11T21:20:19.428Z,96263.91
2023-04-11T21:23:08.432Z,96225.31
2023-04-11T21:25:57.082Z,96257.78
2023-04-11T21:28:45.829Z,96244.50
2023-04-11T21:31:35.899Z,96259.13
2023-04-11T21:34:25.877Z,96259.53
2023-04-11T21:37:14.529Z,96235.31
2023-04-11T21:40:04.804Z,96242.66
2023-04-11T21:42:53.424Z,96245.81
2023-04-11T21:45:42.080Z,96239.06
2023-04-11T21:48:32.090Z,96240.47
2023-04-11T21:51:21.301Z,96235.16
2023-04-11T21:54:10.482Z,96231.50
2023-04-11T21:56:59.110Z,96232.22
2023-04-11T21:59:48.175Z,96231.88
2023-04-11T22:02:37.258Z,96224.22
2023-04-11T22:05:27.997Z,96229.31
2023-04-11T22:08:19.847Z,96227.91
2023-04-11T22:11:11.478Z,96225.19
2023-04-11T22:14:00.918Z,96213.00
2023-04-11T22:16:49.969Z,96211.00
2023-04-11T22:19:42.580Z,96204.63
2023-04-11T22:22:32.566Z,96195.47
2023-04-11T22:25:25.393Z,96196.47
2023-04-11T22:28:15.900Z,96194.31
2023-04-11T22:31:04.911Z,96192.22
2023-04-11T22:33:55.565Z,96198.50
2023-04-11T22:36:44.453Z,96200.50
2023-04-11T22:39:36.688Z,96200.06
2023-04-11T22:42:25.706Z,96190.88
2023-04-11T22:45:15.248Z,96176.81
2023-04-11T22:48:04.601Z,96177.69
2023-04-11T22:51:00.119Z,96181.66
2023-04-11T22:53:48.752Z,96186.53
2023-04-11T22:56:39.706Z,96178.59
2023-04-11T22:59:28.753Z,96165.28
2023-04-11T23:02:18.006Z,96173.50
2023-04-11T23:05:08.271Z,96176.59
2023-04-11T23:07:56.973Z,96170.97
2023-04-11T23:10:46.739Z,96171.56
2023-04-11T23:13:37.575Z,96173.44
2023-04-11T23:16:27.908Z,96166.47
2023-04-11T23:19:18.691Z,96157.41
2023-04-11T23:22:09.010Z,96146.78
2023-04-11T23:24:58.069Z,96140.97
2023-04-11T23:27:46.750Z,96144.19
2023-04-11T23:30:37.489Z,96134.19
2023-04-11T23:33:26.685Z,96136.81
2023-04-11T23:36:16.059Z,96131.38
2023-04-11T23:39:05.769Z,96121.22
2023-04-11T23:41:54.486Z,96119.81
2023-04-11T23:44:43.549Z,96072.31
2023-04-11T23:47:33.697Z,96113.59
2023-04-11T23:50:23.108Z,96109.56
2023-04-11T23:53:12.191Z,96102.25
2023-04-11T23:56:01.426Z,96095.66
2023-04-11T23:58:50.618Z,96092.38
